Revel Montgey Airfield

LFIR · Occitanie, Frankreich

6. Oktober 2022

Uhrzeit Code Wetter Temp. Sichtweite Wolkendecke Wind METAR/SPECI
16:00
V
26 °C 10 km+ - 110° 110° 8 kt METAR LFMP 061400Z AUTO 11008KT 080V170 9999 FEW058 26/13 Q1026 NOSIG
15:30
V
25 °C 10 km+ - 110° 110° 10 kt METAR LFMP 061330Z AUTO 11010KT 080V150 9999 FEW019 25/14 Q1026 NOSIG
15:00
V
26 °C 10 km+ 5.800 ft 090° 090° 10 kt METAR LFMP 061300Z AUTO 09010KT 9999 FEW047 BKN058 26/14 Q1026 NOSIG
14:30
V
26 °C 10 km+ - 100° 100° 7 kt METAR LFMP 061230Z AUTO 10007KT 060V140 9999 SCT056 26/14 Q1027 NOSIG
14:00
V
26 °C 10 km+ - 080° 080° 9 kt METAR LFMP 061200Z AUTO 08009KT 050V110 9999 FEW058 26/15 Q1027 NOSIG
13:30
V
25 °C 10 km+ 5.600 ft 070° 070° 7 kt METAR LFMP 061130Z AUTO 07007KT 9999 BKN056 25/15 Q1027 NOSIG
13:00
V
25 °C 10 km+ 5.400 ft 060° 060° 7 kt METAR LFMP 061100Z AUTO 06007KT 350V120 9999 BKN054 25/14 Q1027 NOSIG
12:30
V
25 °C 10 km+ - Var Var 5 kt METAR LFMP 061030Z AUTO VRB05KT 9999 FEW052 25/13 Q1027 NOSIG
12:00
V
24 °C 10 km+ - 300° 300° 4 kt METAR LFMP 061000Z AUTO 30004KT 240V040 CAVOK 24/14 Q1028 NOSIG
11:30
V
23 °C 10 km+ - 290° 290° 7 kt METAR LFMP 060930Z AUTO 29007KT 260V320 CAVOK 23/14 Q1028 NOSIG
11:00
V
22 °C 10 km+ - 290° 290° 7 kt METAR LFMP 060900Z AUTO 29007KT 250V320 9999 FEW070 22/14 Q1028 NOSIG
10:30
V
21 °C 10 km+ - 280° 280° 9 kt METAR LFMP 060830Z AUTO 28009KT 9999 SCT070 21/14 Q1028 NOSIG
10:00
V
20 °C 10 km+ 6.000 ft 290° 290° 9 kt METAR LFMP 060800Z AUTO 29009KT 9999 BKN060 BKN070 20/14 Q1028 NOSIG
09:30
V
20 °C 10 km+ 7.000 ft 290° 290° 7 kt METAR LFMP 060730Z AUTO 29007KT 9999 BKN070 20/14 Q1028 NOSIG
09:00
V
19 °C 10 km+ 7.200 ft 290° 290° 6 kt METAR LFMP 060700Z AUTO 29006KT 9999 BKN072 19/15 Q1028 NOSIG
08:30
V
18 °C 10 km+ 7.200 ft Var Var 2 kt METAR LFMP 060630Z AUTO VRB02KT 9999 BKN072 18/15 Q1028 NOSIG
08:00
V
18 °C 10 km+ 7.000 ft Var Var 2 kt METAR LFMP 060600Z AUTO VRB02KT 9999 BKN070 18/15 Q1028 NOSIG
07:30
V
18 °C 10 km+ 7.000 ft 290° 290° 4 kt METAR LFMP 060530Z AUTO 29004KT 9999 OVC070 18/15 Q1028 NOSIG
07:00
V
18 °C 10 km+ 6.800 ft Var Var 2 kt METAR LFMP 060500Z AUTO VRB02KT 9999 BKN068 18/16 Q1027 TEMPO 4000 RADZ BR
06:30
V
19 °C 10 km+ 6.600 ft 030° 030° 2 kt METAR LFMP 060430Z AUTO 03002KT 9999 OVC066/// ///CB 19/17 Q1027 TEMPO 4000 RADZ BR BECMG 32010KT FEW020 BKN040
06:00
V
18 °C 10 km+ 6.600 ft Var Var 2 kt METAR LFMP 060400Z AUTO VRB02KT 9999 FEW008/// BKN066/// //////TCU 18/16 Q1027 TEMPO 4000 RADZ BR BECMG FEW020 BKN040
05:30
M
19 °C 10 km+ 2.300 ft 350° 350° 4 kt METAR LFMP 060330Z AUTO 35004KT 310V020 9999 FEW010/// SCT016/// BKN023/// //////CB 19/16 Q1027 TEMPO 4000 RADZ BR BECMG FEW020 BKN040
05:00
M
19 °C 10 km+ 1.400 ft Var Var 2 kt METAR LFMP 060300Z AUTO VRB02KT 9999 BKN014/// OVC019/// ///TCU 19/16 Q1027 TEMPO 0900 FG VV///
04:30
M
19 °C 10 km+ 1.200 ft 350° 350° 3 kt METAR LFMP 060230Z AUTO 35003KT 320V040 9999 BKN012/// BKN020/// ///CB 19/16 Q1027
04:00
M
19 °C 10 km+ 1.400 ft 320° 320° 4 kt METAR LFMP 060200Z AUTO 32004KT 290V350 9999 BKN014 BKN048 OVC054 19/16 Q1027
03:30
V
19 °C 10 km+ 5.200 ft 310° 310° 5 kt METAR LFMP 060130Z AUTO 31005KT 9999 FEW010 BKN052 BKN062 19/17 Q1027
03:00
V
19 °C 10 km+ 5.400 ft 310° 310° 4 kt METAR LFMP 060100Z AUTO 31004KT 9999 BKN054 BKN068 19/18 Q1027
02:30
V
19 °C 10 km+ 5.600 ft 320° 320° 6 kt METAR LFMP 060030Z AUTO 32006KT 9999 SCT024 BKN056 19/18 Q1027
02:00
V
19 °C 10 km+ - 310° 310° 5 kt METAR LFMP 060000Z AUTO 31005KT 9999 FEW026 19/18 Q1027
01:30
V
18 °C 10 km+ - 300° 300° 4 kt METAR LFMP 052330Z AUTO 30004KT 9999 SCT006 18/17 Q1027
01:00
V
18 °C 10 km+ - 270° 270° 3 kt METAR LFMP 052300Z AUTO 27003KT 9999 SCT006 18/17 Q1027
00:30
V
19 °C 10 km+ - 300° 300° 4 kt METAR LFMP 052230Z AUTO 30004KT 260V320 9999 FEW007 19/18 Q1027
00:00
V
19 °C 10 km+ - 330° 330° 5 kt METAR LFMP 052200Z AUTO 33005KT 9999 FEW056 19/18 Q1027

5. Oktober 2022

Uhrzeit Code Wetter Temp. Sichtweite Wolkendecke Wind METAR/SPECI
23:30
V
19 °C 10 km+ 5.600 ft 340° 340° 4 kt METAR LFMP 052130Z AUTO 34004KT 9999 BKN056 19/18 Q1026 BECMG BKN008
23:00
V
19 °C 10 km+ 5.600 ft 350° 350° 3 kt METAR LFMP 052100Z AUTO 35003KT 330V030 9999 OVC056 19/18 Q1026 BECMG BKN008
22:30
V
20 °C 10 km+ 5.600 ft 350° 350° 4 kt METAR LFMP 052030Z AUTO 35004KT 9999 FEW009 OVC056 20/18 Q1026 BECMG BKN008
22:00
V
20 °C 10 km+ 5.200 ft Var Var 2 kt METAR LFMP 052000Z AUTO VRB02KT 9999 BKN052 20/18 Q1026 BECMG BKN008
21:30
V
20 °C 10 km+ - 130° 130° 3 kt METAR LFMP 051930Z AUTO 13003KT 100V160 9999 FEW056 20/18 Q1025 BECMG BKN008
21:00
V
20 °C 10 km+ 5.800 ft 120° 120° 4 kt METAR LFMP 051900Z AUTO 12004KT 090V150 9999 FEW008 BKN058 20/18 Q1025 BECMG BKN008
20:30
V
21 °C 10 km+ 5.200 ft 110° 110° 6 kt METAR LFMP 051830Z AUTO 11006KT 9999 FEW009 BKN052 21/19 Q1025 BECMG BKN008
20:00
V
21 °C 10 km+ 4.800 ft 120° 120° 7 kt METAR LFMP 051800Z AUTO 12007KT 090V150 9999 SCT008 BKN048 BKN056 21/19 Q1024 BECMG BKN008
19:30
I
21 °C 10 km+ 900 ft 120° 120° 7 kt METAR LFMP 051730Z AUTO 12007KT 090V150 9999 BKN009 BKN044 BKN052 21/19 Q1024 NOSIG
19:00
I
21 °C 10 km+ 900 ft 120° 120° 9 kt METAR LFMP 051700Z AUTO 12009KT 9999 BKN009 BKN013 OVC046 21/19 Q1024 NOSIG
18:30
I
22 °C 10 km+ 900 ft 120° 120° 10 kt METAR LFMP 051630Z AUTO 12010KT 090V150 9999 BKN009 BKN044 OVC056 22/19 Q1024 NOSIG
18:00
I
22 °C 10 km+ 900 ft 110° 110° 12 kt METAR LFMP 051600Z AUTO 11012KT 080V140 9999 OVC009 22/19 Q1023 NOSIG
17:30
M
22 °C 10 km+ 1.200 ft 100° 100° 11 kt METAR LFMP 051530Z AUTO 10011KT 070V130 9999 BKN012 OVC022 22/19 Q1023 BECMG BKN008
17:00
M
22 °C 10 km+ 1.300 ft 090° 090° 13 kt METAR LFMP 051500Z AUTO 09013KT 9999 BKN013 BKN020 OVC025 22/18 Q1023 TEMPO SCT011 BKN015 BECMG VRB03KT
16:30
M
22 °C 10 km+ 1.300 ft 090° 090° 12 kt METAR LFMP 051430Z AUTO 09012KT 070V130 9999 BKN013 BKN020 BKN026 22/18 Q1023 TEMPO SCT011 BKN015
16:00
M
22 °C 10 km+ 1.300 ft 090° 090° 12 kt METAR LFMP 051400Z AUTO 09012KT 9999 BKN013 BKN019 OVC026 22/18 Q1024 BECMG SCT011 BKN015
15:30
M
22 °C 10 km+ 1.200 ft 090° 090° 13 kt METAR LFMP 051330Z AUTO 09013KT 060V120 9999 BKN012 OVC020 22/18 Q1024 BECMG SCT011 BKN015
15:00
M
22 °C 10 km+ 1.500 ft 090° 090° 13 kt METAR LFMP 051300Z AUTO 09013KT 9999 BKN015 BKN021 22/18 Q1024 NOSIG
14:30
M
23 °C 10 km+ 1.400 ft 080° 080° 12 kt METAR LFMP 051230Z AUTO 08012KT 9999 BKN014 BKN022 23/18 Q1024 BECMG SCT011 BKN015
14:00
M
22 °C 10 km+ 1.400 ft 080° 080° 12 kt METAR LFMP 051200Z AUTO 08012KT 9999 OVC014 22/18 Q1024 BECMG SCT011 BKN015
13:30
M
21 °C 10 km+ 1.200 ft 080° 080° 11 kt METAR LFMP 051130Z AUTO 08011KT 9999 BKN012 OVC019 21/17 Q1024 BECMG SCT015
13:00
M
21 °C 10 km+ 1.100 ft 090° 090° 11 kt METAR LFMP 051100Z AUTO 09011KT 060V130 9999 BKN011 BKN016 OVC024 21/17 Q1024 BECMG SCT015
12:30
M
22 °C 10 km+ 1.200 ft 090° 090° 11 kt METAR LFMP 051030Z AUTO 09011KT 9999 BKN012 BKN017 BKN024 22/18 Q1024 BECMG SCT015
12:00
M
22 °C 10 km+ 1.800 ft 110° 110° 8 kt METAR LFMP 051000Z AUTO 11008KT 080V150 9999 BKN018 22/16 Q1024 NOSIG
11:30
V
22 °C 10 km+ - 100° 100° 9 kt METAR LFMP 050930Z AUTO 10009KT 070V140 9999 FEW019 22/16 Q1024 NOSIG
11:00
V
21 °C 10 km+ - 130° 130° 6 kt METAR LFMP 050900Z AUTO 13006KT 080V170 CAVOK 21/15 Q1024 NOSIG
10:30
V
20 °C 10 km+ - 120° 120° 6 kt METAR LFMP 050830Z AUTO 12006KT 070V150 CAVOK 20/16 Q1024 NOSIG
10:00
V
20 °C 10 km+ - 090° 090° 7 kt METAR LFMP 050800Z AUTO 09007KT 050V140 9999 FEW015 20/16 Q1024 TEMPO 4000 BR BKN008
09:30
V
19 °C 10 km+ - 350° 350° 3 kt METAR LFMP 050730Z AUTO 35003KT 320V030 CAVOK 19/16 Q1024 TEMPO 4000 BR BKN008 BECMG 12012KT
09:00
M
17 °C 10 km+ 1.200 ft Var Var 3 kt METAR LFMP 050700Z AUTO VRB03KT 9999 BKN012 BKN018 17/16 Q1023 TEMPO 4000 BR BKN008
08:30
M
16 °C 10 km+ 1.300 ft Var Var 1 kt METAR LFMP 050630Z AUTO VRB01KT 9999 BKN013 16/15 Q1023 TEMPO 4000 BR BKN008 BECMG 12012KT
08:00
M
16 °C 10 km+ 1.400 ft Var Var 3 kt METAR LFMP 050600Z AUTO VRB03KT 9999 OVC014 16/14 Q1023 TEMPO 4000 BR BKN008
07:30
V
15 °C 10 km+ - 330° 330° 5 kt METAR LFMP 050530Z AUTO 33005KT 9999 FEW016 15/14 Q1023 TEMPO 4000 BR BKN008
07:00
V
14 °C 10 km+ - Var Var 2 kt METAR LFMP 050500Z AUTO VRB02KT 9999 FEW011 14/13 Q1023 TEMPO 4000 BR VV///
06:30
M
14 °C 10 km+ 1.100 ft Var Var 1 kt METAR LFMP 050430Z AUTO VRB01KT 9999 BKN011 14/13 Q1023 TEMPO 4000 BR VV///
06:00
M
14 °C 10 km+ 1.000 ft Var Var 2 kt METAR LFMP 050400Z AUTO VRB02KT 9999 OVC010 14/13 Q1023 TEMPO 0900 FG VV///
05:30
M
14 °C 10 km+ 1.200 ft Var Var 2 kt METAR LFMP 050330Z AUTO VRB02KT 9999 BKN012 14/13 Q1023 TEMPO 0900 FG VV///
05:00
V
13 °C 10 km+ - Var Var 2 kt METAR LFMP 050300Z AUTO VRB02KT 9999 SCT011 13/12 Q1023 TEMPO 0900 FG VV///
04:30
V
13 °C 10 km+ - 250° 250° 2 kt METAR LFMP 050230Z AUTO 25002KT CAVOK 13/12 Q1023
04:00
V
14 °C 10 km+ - Var 000° 0 kt METAR LFMP 050200Z AUTO 00000KT CAVOK 14/12 Q1023
03:30
V
14 °C 10 km+ - 230° 230° 3 kt METAR LFMP 050130Z AUTO 23003KT CAVOK 14/12 Q1023
03:00
V
14 °C 10 km+ - 240° 240° 4 kt METAR LFMP 050100Z AUTO 24004KT CAVOK 14/12 Q1023
02:30
V
14 °C 10 km+ - Var Var 1 kt METAR LFMP 050030Z AUTO VRB01KT CAVOK 14/12 Q1023
02:00
V
14 °C 10 km+ - Var 000° 0 kt METAR LFMP 050000Z AUTO 00000KT CAVOK 14/12 Q1023
01:30
V
15 °C 10 km+ - 290° 290° 3 kt METAR LFMP 042330Z AUTO 29003KT CAVOK 15/12 Q1023
01:00
V
15 °C 10 km+ - Var Var 1 kt METAR LFMP 042300Z AUTO VRB01KT CAVOK 15/13 Q1023
00:30
V
15 °C 10 km+ - 260° 260° 1 kt METAR LFMP 042230Z AUTO 26001KT CAVOK 15/13 Q1023
00:00
V
16 °C 10 km+ - Var Var 2 kt METAR LFMP 042200Z AUTO VRB02KT CAVOK 16/13 Q1023

4. Oktober 2022

Uhrzeit Code Wetter Temp. Sichtweite Wolkendecke Wind METAR/SPECI
23:30
V
16 °C 10 km+ - 240° 240° 3 kt METAR LFMP 042130Z AUTO 24003KT CAVOK 16/13 Q1023 NOSIG
23:00
V
16 °C 10 km+ - 210° 210° 3 kt METAR LFMP 042100Z AUTO 21003KT CAVOK 16/13 Q1023 NOSIG
22:30
V
17 °C 10 km+ - 220° 220° 4 kt METAR LFMP 042030Z AUTO 22004KT CAVOK 17/13 Q1023 NOSIG
22:00
V
17 °C 10 km+ - 250° 250° 2 kt METAR LFMP 042000Z AUTO 25002KT CAVOK 17/14 Q1022 NOSIG
21:30
V
18 °C 10 km+ - 290° 290° 2 kt METAR LFMP 041930Z AUTO 29002KT CAVOK 18/14 Q1022 NOSIG
21:00
V
19 °C 10 km+ - Var Var 3 kt METAR LFMP 041900Z AUTO VRB03KT CAVOK 19/14 Q1022 NOSIG
20:30
V
19 °C 10 km+ - 020° 020° 2 kt METAR LFMP 041830Z AUTO 02002KT CAVOK 19/15 Q1022 NOSIG
20:00
V
19 °C 10 km+ - Var Var 2 kt METAR LFMP 041800Z AUTO VRB02KT CAVOK 19/14 Q1022 NOSIG
19:30
V
20 °C 10 km+ - 130° 130° 3 kt METAR LFMP 041730Z AUTO 13003KT CAVOK 20/14 Q1022 NOSIG
19:00
V
21 °C 10 km+ - 120° 120° 4 kt METAR LFMP 041700Z AUTO 12004KT 090V150 CAVOK 21/14 Q1021 NOSIG
18:30
V
22 °C 10 km+ - 100° 100° 4 kt METAR LFMP 041630Z AUTO 10004KT 050V130 CAVOK 22/15 Q1021 NOSIG
18:00
V
23 °C 10 km+ - 100° 100° 7 kt METAR LFMP 041600Z AUTO 10007KT 070V130 CAVOK 23/14 Q1021 NOSIG
17:30
V
23 °C 10 km+ - 100° 100° 6 kt METAR LFMP 041530Z AUTO 10006KT 060V130 CAVOK 23/14 Q1021 NOSIG
17:00
V
24 °C 10 km+ - 100° 100° 7 kt METAR LFMP 041500Z AUTO 10007KT CAVOK 24/15 Q1021 NOSIG
16:30
V
24 °C 10 km+ - 100° 100° 8 kt METAR LFMP 041430Z AUTO 10008KT 060V160 CAVOK 24/13 Q1021 NOSIG
16:00
V
24 °C 10 km+ - 100° 100° 8 kt METAR LFMP 041400Z AUTO 10008KT 060V130 CAVOK 24/14 Q1021 NOSIG
Ältere Daten

Wir und Dritte verfolgen dein Internetverhalten auf unserer Website mit Cookies. Wenn du fortfährst, gehen wir davon aus, dass du mit unserer Cookie-Richtlinie einverstanden bist. Mehr erfahren